sensor_id;sensor_type;location;lat;lon;timestamp;P1;durP1;ratioP1;P2;durP2;ratioP2
51995;SDS011;38010;53.264;6.592;2022-09-09T00:01:38;0.70;;;0.60;;
51995;SDS011;38010;53.264;6.592;2022-09-09T00:04:37;0.80;;;0.70;;
51995;SDS011;38010;53.264;6.592;2022-09-09T00:07:10;1.10;;;0.88;;
51995;SDS011;38010;53.264;6.592;2022-09-09T00:13:02;0.60;;;0.60;;
51995;SDS011;38010;53.264;6.592;2022-09-09T00:15:40;0.60;;;0.60;;
51995;SDS011;38010;53.264;6.592;2022-09-09T00:21:07;0.60;;;0.60;;
51995;SDS011;38010;53.264;6.592;2022-09-09T00:23:38;0.82;;;0.68;;
51995;SDS011;38010;53.264;6.592;2022-09-09T00:26:09;1.08;;;0.73;;
51995;SDS011;38010;53.264;6.592;2022-09-09T00:31:23;1.27;;;0.73;;
51995;SDS011;38010;53.264;6.592;2022-09-09T00:33:54;0.73;;;0.60;;
51995;SDS011;38010;53.264;6.592;2022-09-09T00:36:27;0.57;;;0.50;;
51995;SDS011;38010;53.264;6.592;2022-09-09T00:38:59;0.60;;;0.57;;
51995;SDS011;38010;53.264;6.592;2022-09-09T00:41:30;0.60;;;0.60;;
51995;SDS011;38010;53.264;6.592;2022-09-09T00:46:59;0.73;;;0.70;;
51995;SDS011;38010;53.264;6.592;2022-09-09T00:49:39;0.85;;;0.80;;
51995;SDS011;38010;53.264;6.592;2022-09-09T00:52:32;0.80;;;0.70;;
51995;SDS011;38010;53.264;6.592;2022-09-09T00:57:40;1.03;;;0.80;;
51995;SDS011;38010;53.264;6.592;2022-09-09T01:07:58;0.82;;;0.60;;
51995;SDS011;38010;53.264;6.592;2022-09-09T01:13:08;1.27;;;0.70;;
51995;SDS011;38010;53.264;6.592;2022-09-09T01:15:44;0.55;;;0.50;;
51995;SDS011;38010;53.264;6.592;2022-09-09T01:18:12;0.60;;;0.60;;
51995;SDS011;38010;53.264;6.592;2022-09-09T01:23:33;0.60;;;0.57;;
51995;SDS011;38010;53.264;6.592;2022-09-09T01:29:10;0.80;;;0.60;;
51995;SDS011;38010;53.264;6.592;2022-09-09T01:31:40;0.55;;;0.50;;
51995;SDS011;38010;53.264;6.592;2022-09-09T01:34:25;0.43;;;0.43;;
51995;SDS011;38010;53.264;6.592;2022-09-09T01:37:06;1.13;;;0.60;;
51995;SDS011;38010;53.264;6.592;2022-09-09T01:39:35;0.60;;;0.50;;
51995;SDS011;38010;53.264;6.592;2022-09-09T01:42:02;1.20;;;0.55;;
51995;SDS011;38010;53.264;6.592;2022-09-09T01:44:32;0.60;;;0.60;;
51995;SDS011;38010;53.264;6.592;2022-09-09T01:46:59;0.80;;;0.50;;
51995;SDS011;38010;53.264;6.592;2022-09-09T01:49:24;0.88;;;0.60;;
51995;SDS011;38010;53.264;6.592;2022-09-09T01:51:52;0.85;;;0.60;;
51995;SDS011;38010;53.264;6.592;2022-09-09T01:54:20;0.50;;;0.50;;
51995;SDS011;38010;53.264;6.592;2022-09-09T01:56:54;0.80;;;0.60;;
51995;SDS011;38010;53.264;6.592;2022-09-09T01:59:35;0.85;;;0.57;;
51995;SDS011;38010;53.264;6.592;2022-09-09T02:05:11;0.52;;;0.50;;
51995;SDS011;38010;53.264;6.592;2022-09-09T02:07:50;0.82;;;0.60;;
51995;SDS011;38010;53.264;6.592;2022-09-09T02:10:28;0.80;;;0.50;;
51995;SDS011;38010;53.264;6.592;2022-09-09T02:13:07;1.40;;;0.70;;
51995;SDS011;38010;53.264;6.592;2022-09-09T02:15:42;0.55;;;0.50;;
51995;SDS011;38010;53.264;6.592;2022-09-09T02:18:24;0.50;;;0.50;;
51995;SDS011;38010;53.264;6.592;2022-09-09T02:20:53;1.73;;;0.70;;
51995;SDS011;38010;53.264;6.592;2022-09-09T02:23:21;0.60;;;0.60;;
51995;SDS011;38010;53.264;6.592;2022-09-09T02:25:47;1.48;;;0.73;;
51995;SDS011;38010;53.264;6.592;2022-09-09T02:28:16;0.60;;;0.60;;
51995;SDS011;38010;53.264;6.592;2022-09-09T02:30:46;0.65;;;0.65;;
51995;SDS011;38010;53.264;6.592;2022-09-09T02:33:22;0.80;;;0.60;;
51995;SDS011;38010;53.264;6.592;2022-09-09T02:35:52;0.55;;;0.55;;
51995;SDS011;38010;53.264;6.592;2022-09-09T02:38:21;0.95;;;0.60;;
51995;SDS011;38010;53.264;6.592;2022-09-09T02:40:51;0.63;;;0.40;;
51995;SDS011;38010;53.264;6.592;2022-09-09T02:43:17;0.77;;;0.70;;
51995;SDS011;38010;53.264;6.592;2022-09-09T02:45:55;1.60;;;0.60;;
51995;SDS011;38010;53.264;6.592;2022-09-09T02:48:33;0.85;;;0.50;;
51995;SDS011;38010;53.264;6.592;2022-09-09T02:51:16;0.60;;;0.60;;
51995;SDS011;38010;53.264;6.592;2022-09-09T02:53:51;0.90;;;0.60;;
51995;SDS011;38010;53.264;6.592;2022-09-09T02:56:20;0.50;;;0.50;;
51995;SDS011;38010;53.264;6.592;2022-09-09T02:58:48;0.93;;;0.60;;
51995;SDS011;38010;53.264;6.592;2022-09-09T03:01:14;0.75;;;0.60;;
51995;SDS011;38010;53.264;6.592;2022-09-09T03:03:40;0.85;;;0.60;;
51995;SDS011;38010;53.264;6.592;2022-09-09T03:06:07;2.42;;;0.85;;
51995;SDS011;38010;53.264;6.592;2022-09-09T03:08:32;0.70;;;0.70;;
51995;SDS011;38010;53.264;6.592;2022-09-09T03:10:59;1.65;;;0.85;;
51995;SDS011;38010;53.264;6.592;2022-09-09T03:13:27;0.98;;;0.50;;
51995;SDS011;38010;53.264;6.592;2022-09-09T03:15:53;0.60;;;0.60;;
51995;SDS011;38010;53.264;6.592;2022-09-09T03:18:19;1.27;;;0.80;;
51995;SDS011;38010;53.264;6.592;2022-09-09T03:20:45;1.40;;;0.50;;
51995;SDS011;38010;53.264;6.592;2022-09-09T03:23:13;0.75;;;0.60;;
51995;SDS011;38010;53.264;6.592;2022-09-09T03:25:39;1.25;;;0.70;;
51995;SDS011;38010;53.264;6.592;2022-09-09T03:28:11;0.57;;;0.50;;
51995;SDS011;38010;53.264;6.592;2022-09-09T03:30:36;1.15;;;0.60;;
51995;SDS011;38010;53.264;6.592;2022-09-09T03:33:02;1.08;;;0.70;;
51995;SDS011;38010;53.264;6.592;2022-09-09T03:35:28;0.98;;;0.60;;
51995;SDS011;38010;53.264;6.592;2022-09-09T03:37:54;0.73;;;0.70;;
51995;SDS011;38010;53.264;6.592;2022-09-09T03:40:20;0.73;;;0.50;;
51995;SDS011;38010;53.264;6.592;2022-09-09T03:42:46;0.77;;;0.70;;
51995;SDS011;38010;53.264;6.592;2022-09-09T03:45:13;0.50;;;0.50;;
51995;SDS011;38010;53.264;6.592;2022-09-09T03:47:38;1.02;;;0.50;;
51995;SDS011;38010;53.264;6.592;2022-09-09T03:50:05;0.70;;;0.60;;
51995;SDS011;38010;53.264;6.592;2022-09-09T03:52:39;1.20;;;0.70;;
51995;SDS011;38010;53.264;6.592;2022-09-09T03:55:07;0.68;;;0.50;;
51995;SDS011;38010;53.264;6.592;2022-09-09T03:57:33;1.33;;;0.60;;
51995;SDS011;38010;53.264;6.592;2022-09-09T04:00:04;1.00;;;0.52;;
51995;SDS011;38010;53.264;6.592;2022-09-09T04:02:31;1.13;;;0.50;;
51995;SDS011;38010;53.264;6.592;2022-09-09T04:04:57;0.70;;;0.40;;
51995;SDS011;38010;53.264;6.592;2022-09-09T04:07:23;0.70;;;0.55;;
51995;SDS011;38010;53.264;6.592;2022-09-09T04:09:48;0.52;;;0.50;;
51995;SDS011;38010;53.264;6.592;2022-09-09T04:12:14;0.60;;;0.50;;
51995;SDS011;38010;53.264;6.592;2022-09-09T04:14:39;0.70;;;0.40;;
51995;SDS011;38010;53.264;6.592;2022-09-09T04:17:05;0.47;;;0.40;;
51995;SDS011;38010;53.264;6.592;2022-09-09T04:19:31;0.32;;;0.32;;
51995;SDS011;38010;53.264;6.592;2022-09-09T04:21:57;0.30;;;0.30;;
51995;SDS011;38010;53.264;6.592;2022-09-09T04:24:23;0.98;;;0.50;;
51995;SDS011;38010;53.264;6.592;2022-09-09T04:26:50;0.43;;;0.40;;
51995;SDS011;38010;53.264;6.592;2022-09-09T04:29:15;0.43;;;0.30;;
51995;SDS011;38010;53.264;6.592;2022-09-09T04:31:41;0.85;;;0.40;;
51995;SDS011;38010;53.264;6.592;2022-09-09T04:34:08;0.30;;;0.30;;
51995;SDS011;38010;53.264;6.592;2022-09-09T04:36:34;0.38;;;0.30;;
51995;SDS011;38010;53.264;6.592;2022-09-09T04:39:00;0.43;;;0.40;;
51995;SDS011;38010;53.264;6.592;2022-09-09T04:41:26;0.40;;;0.30;;
51995;SDS011;38010;53.264;6.592;2022-09-09T04:43:52;0.60;;;0.47;;
51995;SDS011;38010;53.264;6.592;2022-09-09T04:46:19;0.55;;;0.38;;
51995;SDS011;38010;53.264;6.592;2022-09-09T04:48:45;0.75;;;0.55;;
51995;SDS011;38010;53.264;6.592;2022-09-09T04:51:12;0.73;;;0.30;;
51995;SDS011;38010;53.264;6.592;2022-09-09T04:53:38;0.77;;;0.50;;
51995;SDS011;38010;53.264;6.592;2022-09-09T04:56:08;0.47;;;0.40;;
51995;SDS011;38010;53.264;6.592;2022-09-09T04:58:39;0.45;;;0.40;;
51995;SDS011;38010;53.264;6.592;2022-09-09T05:01:12;0.88;;;0.60;;
51995;SDS011;38010;53.264;6.592;2022-09-09T05:03:42;0.35;;;0.32;;
51995;SDS011;38010;53.264;6.592;2022-09-09T05:06:11;0.47;;;0.40;;
51995;SDS011;38010;53.264;6.592;2022-09-09T05:08:44;0.40;;;0.30;;
51995;SDS011;38010;53.264;6.592;2022-09-09T05:11:17;0.32;;;0.30;;
51995;SDS011;38010;53.264;6.592;2022-09-09T05:13:44;0.55;;;0.30;;
51995;SDS011;38010;53.264;6.592;2022-09-09T05:16:10;0.40;;;0.30;;
51995;SDS011;38010;53.264;6.592;2022-09-09T05:18:40;0.57;;;0.30;;
51995;SDS011;38010;53.264;6.592;2022-09-09T05:21:07;0.68;;;0.40;;
51995;SDS011;38010;53.264;6.592;2022-09-09T05:23:33;0.70;;;0.40;;
51995;SDS011;38010;53.264;6.592;2022-09-09T05:26:00;0.55;;;0.40;;
51995;SDS011;38010;53.264;6.592;2022-09-09T05:28:27;0.52;;;0.43;;
51995;SDS011;38010;53.264;6.592;2022-09-09T05:31:00;0.85;;;0.50;;
51995;SDS011;38010;53.264;6.592;2022-09-09T05:33:29;0.32;;;0.32;;
51995;SDS011;38010;53.264;6.592;2022-09-09T05:35:59;0.88;;;0.50;;
51995;SDS011;38010;53.264;6.592;2022-09-09T05:38:27;0.70;;;0.52;;
51995;SDS011;38010;53.264;6.592;2022-09-09T05:40:54;0.82;;;0.50;;
51995;SDS011;38010;53.264;6.592;2022-09-09T05:43:20;0.40;;;0.40;;
51995;SDS011;38010;53.264;6.592;2022-09-09T05:45:46;0.60;;;0.43;;
51995;SDS011;38010;53.264;6.592;2022-09-09T05:48:13;0.63;;;0.40;;
51995;SDS011;38010;53.264;6.592;2022-09-09T05:50:40;0.77;;;0.50;;
51995;SDS011;38010;53.264;6.592;2022-09-09T05:53:06;0.95;;;0.50;;
51995;SDS011;38010;53.264;6.592;2022-09-09T05:55:31;0.73;;;0.50;;
51995;SDS011;38010;53.264;6.592;2022-09-09T05:57:57;0.77;;;0.50;;
51995;SDS011;38010;53.264;6.592;2022-09-09T06:00:23;0.73;;;0.52;;
51995;SDS011;38010;53.264;6.592;2022-09-09T06:02:52;0.50;;;0.50;;
51995;SDS011;38010;53.264;6.592;2022-09-09T06:05:18;0.63;;;0.60;;
51995;SDS011;38010;53.264;6.592;2022-09-09T06:07:44;0.43;;;0.40;;
51995;SDS011;38010;53.264;6.592;2022-09-09T06:10:10;1.13;;;0.65;;
51995;SDS011;38010;53.264;6.592;2022-09-09T06:12:39;1.00;;;0.50;;
51995;SDS011;38010;53.264;6.592;2022-09-09T06:15:05;0.63;;;0.60;;
51995;SDS011;38010;53.264;6.592;2022-09-09T06:17:32;0.60;;;0.60;;
51995;SDS011;38010;53.264;6.592;2022-09-09T06:19:58;0.50;;;0.50;;
51995;SDS011;38010;53.264;6.592;2022-09-09T06:22:24;0.82;;;0.50;;
51995;SDS011;38010;53.264;6.592;2022-09-09T06:24:49;1.02;;;0.70;;
51995;SDS011;38010;53.264;6.592;2022-09-09T06:27:16;0.57;;;0.50;;
51995;SDS011;38010;53.264;6.592;2022-09-09T06:29:41;0.65;;;0.57;;
51995;SDS011;38010;53.264;6.592;2022-09-09T06:32:07;1.02;;;0.70;;
51995;SDS011;38010;53.264;6.592;2022-09-09T06:34:33;0.63;;;0.60;;
51995;SDS011;38010;53.264;6.592;2022-09-09T06:37:00;0.82;;;0.68;;
51995;SDS011;38010;53.264;6.592;2022-09-09T06:39:26;1.83;;;0.60;;
51995;SDS011;38010;53.264;6.592;2022-09-09T06:41:51;1.00;;;0.68;;
51995;SDS011;38010;53.264;6.592;2022-09-09T06:44:18;0.70;;;0.60;;
51995;SDS011;38010;53.264;6.592;2022-09-09T06:46:45;0.50;;;0.50;;
51995;SDS011;38010;53.264;6.592;2022-09-09T06:49:12;1.58;;;0.60;;
51995;SDS011;38010;53.264;6.592;2022-09-09T06:51:38;0.63;;;0.60;;
51995;SDS011;38010;53.264;6.592;2022-09-09T06:54:07;1.67;;;0.80;;
51995;SDS011;38010;53.264;6.592;2022-09-09T06:59:01;0.50;;;0.50;;
51995;SDS011;38010;53.264;6.592;2022-09-09T07:01:32;1.10;;;0.65;;
51995;SDS011;38010;53.264;6.592;2022-09-09T07:03:59;1.23;;;0.70;;
51995;SDS011;38010;53.264;6.592;2022-09-09T07:06:29;1.20;;;0.70;;
51995;SDS011;38010;53.264;6.592;2022-09-09T07:09:01;1.83;;;0.70;;
51995;SDS011;38010;53.264;6.592;2022-09-09T07:11:33;0.80;;;0.70;;
51995;SDS011;38010;53.264;6.592;2022-09-09T07:14:03;1.00;;;0.88;;
51995;SDS011;38010;53.264;6.592;2022-09-09T07:16:28;0.68;;;0.65;;
51995;SDS011;38010;53.264;6.592;2022-09-09T07:18:56;1.33;;;0.70;;
51995;SDS011;38010;53.264;6.592;2022-09-09T07:21:26;1.08;;;0.75;;
51995;SDS011;38010;53.264;6.592;2022-09-09T07:23:52;1.10;;;0.60;;
51995;SDS011;38010;53.264;6.592;2022-09-09T07:26:20;0.80;;;0.68;;
51995;SDS011;38010;53.264;6.592;2022-09-09T07:28:47;0.60;;;0.60;;
51995;SDS011;38010;53.264;6.592;2022-09-09T07:31:14;1.90;;;0.80;;
51995;SDS011;38010;53.264;6.592;2022-09-09T07:33:45;1.60;;;0.77;;
51995;SDS011;38010;53.264;6.592;2022-09-09T07:39:05;1.60;;;0.60;;
51995;SDS011;38010;53.264;6.592;2022-09-09T07:41:33;0.70;;;0.70;;
51995;SDS011;38010;53.264;6.592;2022-09-09T07:44:22;1.20;;;0.75;;
51995;SDS011;38010;53.264;6.592;2022-09-09T07:46:52;0.93;;;0.70;;
51995;SDS011;38010;53.264;6.592;2022-09-09T07:49:18;0.75;;;0.65;;
51995;SDS011;38010;53.264;6.592;2022-09-09T07:51:45;1.00;;;0.60;;
51995;SDS011;38010;53.264;6.592;2022-09-09T07:54:13;0.90;;;0.60;;
51995;SDS011;38010;53.264;6.592;2022-09-09T07:56:40;0.90;;;0.52;;
51995;SDS011;38010;53.264;6.592;2022-09-09T07:59:07;0.70;;;0.70;;
51995;SDS011;38010;53.264;6.592;2022-09-09T08:01:35;2.42;;;0.68;;
51995;SDS011;38010;53.264;6.592;2022-09-09T08:04:05;4.07;;;1.05;;
51995;SDS011;38010;53.264;6.592;2022-09-09T08:06:39;1.15;;;0.55;;
51995;SDS011;38010;53.264;6.592;2022-09-09T08:11:32;1.20;;;0.50;;
51995;SDS011;38010;53.264;6.592;2022-09-09T08:13:59;2.70;;;0.73;;
51995;SDS011;38010;53.264;6.592;2022-09-09T08:16:26;2.90;;;0.80;;
51995;SDS011;38010;53.264;6.592;2022-09-09T08:18:53;0.50;;;0.50;;
51995;SDS011;38010;53.264;6.592;2022-09-09T08:21:27;1.45;;;0.70;;
51995;SDS011;38010;53.264;6.592;2022-09-09T08:23:54;1.63;;;0.70;;
51995;SDS011;38010;53.264;6.592;2022-09-09T08:26:22;1.23;;;0.60;;
51995;SDS011;38010;53.264;6.592;2022-09-09T08:28:50;2.25;;;0.60;;
51995;SDS011;38010;53.264;6.592;2022-09-09T08:31:18;3.47;;;0.82;;
51995;SDS011;38010;53.264;6.592;2022-09-09T08:33:46;0.68;;;0.50;;
51995;SDS011;38010;53.264;6.592;2022-09-09T08:36:14;2.03;;;0.63;;
51995;SDS011;38010;53.264;6.592;2022-09-09T08:38:41;1.83;;;0.80;;
51995;SDS011;38010;53.264;6.592;2022-09-09T08:41:15;2.90;;;0.77;;
51995;SDS011;38010;53.264;6.592;2022-09-09T08:44:08;3.05;;;0.80;;
51995;SDS011;38010;53.264;6.592;2022-09-09T08:49:54;1.55;;;0.80;;
51995;SDS011;38010;53.264;6.592;2022-09-09T08:55:29;2.28;;;0.45;;
51995;SDS011;38010;53.264;6.592;2022-09-09T08:58:18;1.73;;;0.55;;
51995;SDS011;38010;53.264;6.592;2022-09-09T09:09:00;1.48;;;0.60;;
51995;SDS011;38010;53.264;6.592;2022-09-09T09:11:39;0.82;;;0.60;;
51995;SDS011;38010;53.264;6.592;2022-09-09T09:14:11;1.35;;;0.68;;
51995;SDS011;38010;53.264;6.592;2022-09-09T09:16:59;1.10;;;0.50;;
51995;SDS011;38010;53.264;6.592;2022-09-09T09:19:28;3.55;;;0.60;;
51995;SDS011;38010;53.264;6.592;2022-09-09T09:24:40;2.33;;;0.70;;
51995;SDS011;38010;53.264;6.592;2022-09-09T09:27:33;3.40;;;0.80;;
51995;SDS011;38010;53.264;6.592;2022-09-09T09:30:05;2.03;;;0.80;;
51995;SDS011;38010;53.264;6.592;2022-09-09T09:32:44;2.88;;;0.70;;
51995;SDS011;38010;53.264;6.592;2022-09-09T09:35:17;2.08;;;0.50;;
51995;SDS011;38010;53.264;6.592;2022-09-09T09:37:43;1.17;;;0.55;;
51995;SDS011;38010;53.264;6.592;2022-09-09T09:40:11;1.25;;;0.68;;
51995;SDS011;38010;53.264;6.592;2022-09-09T09:42:54;1.55;;;0.55;;
51995;SDS011;38010;53.264;6.592;2022-09-09T09:45:32;1.27;;;0.60;;
51995;SDS011;38010;53.264;6.592;2022-09-09T09:48:09;1.40;;;0.60;;
51995;SDS011;38010;53.264;6.592;2022-09-09T09:50:40;1.63;;;0.65;;
51995;SDS011;38010;53.264;6.592;2022-09-09T09:53:21;1.42;;;0.60;;
51995;SDS011;38010;53.264;6.592;2022-09-09T09:58:18;1.10;;;0.50;;
51995;SDS011;38010;53.264;6.592;2022-09-09T10:00:50;1.90;;;0.70;;
51995;SDS011;38010;53.264;6.592;2022-09-09T10:03:20;1.83;;;0.50;;
51995;SDS011;38010;53.264;6.592;2022-09-09T10:05:48;1.35;;;0.52;;
51995;SDS011;38010;53.264;6.592;2022-09-09T10:08:15;1.08;;;0.47;;
51995;SDS011;38010;53.264;6.592;2022-09-09T10:10:57;2.05;;;0.60;;
51995;SDS011;38010;53.264;6.592;2022-09-09T10:16:31;1.35;;;0.50;;
51995;SDS011;38010;53.264;6.592;2022-09-09T10:19:09;0.70;;;0.50;;
51995;SDS011;38010;53.264;6.592;2022-09-09T10:27:06;1.85;;;0.82;;
51995;SDS011;38010;53.264;6.592;2022-09-09T10:29:51;1.33;;;0.55;;
51995;SDS011;38010;53.264;6.592;2022-09-09T10:32:36;2.07;;;0.50;;
51995;SDS011;38010;53.264;6.592;2022-09-09T10:35:14;1.38;;;0.40;;
51995;SDS011;38010;53.264;6.592;2022-09-09T10:49:01;0.40;;;0.40;;
51995;SDS011;38010;53.264;6.592;2022-09-09T10:57:18;0.85;;;0.47;;
51995;SDS011;38010;53.264;6.592;2022-09-09T10:59:54;1.33;;;0.60;;
51995;SDS011;38010;53.264;6.592;2022-09-09T11:02:27;0.60;;;0.40;;
51995;SDS011;38010;53.264;6.592;2022-09-09T11:04:59;1.05;;;0.60;;
51995;SDS011;38010;53.264;6.592;2022-09-09T11:07:42;0.70;;;0.50;;
51995;SDS011;38010;53.264;6.592;2022-09-09T11:10:16;1.30;;;0.50;;
51995;SDS011;38010;53.264;6.592;2022-09-09T11:13:10;0.60;;;0.40;;
51995;SDS011;38010;53.264;6.592;2022-09-09T11:15:45;0.88;;;0.55;;
51995;SDS011;38010;53.264;6.592;2022-09-09T11:18:19;1.20;;;0.40;;
51995;SDS011;38010;53.264;6.592;2022-09-09T11:20:49;1.43;;;0.60;;
51995;SDS011;38010;53.264;6.592;2022-09-09T11:23:33;0.68;;;0.50;;
51995;SDS011;38010;53.264;6.592;2022-09-09T11:26:07;1.00;;;0.50;;
51995;SDS011;38010;53.264;6.592;2022-09-09T11:42:25;0.60;;;0.40;;
51995;SDS011;38010;53.264;6.592;2022-09-09T11:44:51;1.20;;;0.40;;
51995;SDS011;38010;53.264;6.592;2022-09-09T11:47:28;0.65;;;0.40;;
51995;SDS011;38010;53.264;6.592;2022-09-09T11:52:43;0.55;;;0.30;;
51995;SDS011;38010;53.264;6.592;2022-09-09T11:55:20;0.88;;;0.40;;
51995;SDS011;38010;53.264;6.592;2022-09-09T11:57:56;0.68;;;0.30;;
51995;SDS011;38010;53.264;6.592;2022-09-09T12:00:49;1.33;;;0.55;;
51995;SDS011;38010;53.264;6.592;2022-09-09T12:03:34;1.33;;;0.40;;
51995;SDS011;38010;53.264;6.592;2022-09-09T12:06:17;0.60;;;0.35;;
51995;SDS011;38010;53.264;6.592;2022-09-09T12:08:53;0.52;;;0.30;;
51995;SDS011;38010;53.264;6.592;2022-09-09T12:11:27;1.17;;;0.40;;
51995;SDS011;38010;53.264;6.592;2022-09-09T12:13:56;1.02;;;0.40;;
51995;SDS011;38010;53.264;6.592;2022-09-09T12:16:28;0.40;;;0.30;;
51995;SDS011;38010;53.264;6.592;2022-09-09T12:19:03;1.75;;;0.40;;
51995;SDS011;38010;53.264;6.592;2022-09-09T12:24:19;1.25;;;0.43;;
51995;SDS011;38010;53.264;6.592;2022-09-09T12:26:58;0.95;;;0.40;;
51995;SDS011;38010;53.264;6.592;2022-09-09T12:29:54;1.00;;;0.50;;
51995;SDS011;38010;53.264;6.592;2022-09-09T12:32:25;2.75;;;0.60;;
51995;SDS011;38010;53.264;6.592;2022-09-09T12:35:00;0.60;;;0.30;;
51995;SDS011;38010;53.264;6.592;2022-09-09T12:40:19;1.15;;;0.57;;
51995;SDS011;38010;53.264;6.592;2022-09-09T12:42:46;1.02;;;0.43;;
51995;SDS011;38010;53.264;6.592;2022-09-09T12:45:19;0.93;;;0.55;;
51995;SDS011;38010;53.264;6.592;2022-09-09T12:47:50;1.77;;;0.50;;
51995;SDS011;38010;53.264;6.592;2022-09-09T12:50:21;1.05;;;0.30;;
51995;SDS011;38010;53.264;6.592;2022-09-09T12:52:56;0.28;;;0.20;;
51995;SDS011;38010;53.264;6.592;2022-09-09T12:55:25;0.60;;;0.45;;
51995;SDS011;38010;53.264;6.592;2022-09-09T12:57:56;1.35;;;0.40;;
51995;SDS011;38010;53.264;6.592;2022-09-09T13:00:24;0.40;;;0.40;;
51995;SDS011;38010;53.264;6.592;2022-09-09T13:05:39;1.23;;;0.50;;
51995;SDS011;38010;53.264;6.592;2022-09-09T13:08:05;0.93;;;0.40;;
51995;SDS011;38010;53.264;6.592;2022-09-09T13:10:35;1.23;;;0.50;;
51995;SDS011;38010;53.264;6.592;2022-09-09T13:13:04;1.73;;;0.50;;
51995;SDS011;38010;53.264;6.592;2022-09-09T13:15:51;1.70;;;0.40;;
51995;SDS011;38010;53.264;6.592;2022-09-09T13:18:24;1.58;;;0.47;;
51995;SDS011;38010;53.264;6.592;2022-09-09T13:20:55;1.08;;;0.40;;
51995;SDS011;38010;53.264;6.592;2022-09-09T13:23:23;1.23;;;0.30;;
51995;SDS011;38010;53.264;6.592;2022-09-09T13:26:02;1.10;;;0.40;;
51995;SDS011;38010;53.264;6.592;2022-09-09T13:28:46;1.25;;;0.38;;
51995;SDS011;38010;53.264;6.592;2022-09-09T13:33:49;1.17;;;0.25;;
51995;SDS011;38010;53.264;6.592;2022-09-09T13:36:15;0.50;;;0.40;;
51995;SDS011;38010;53.264;6.592;2022-09-09T13:38:53;0.93;;;0.32;;
51995;SDS011;38010;53.264;6.592;2022-09-09T13:41:21;1.13;;;0.35;;
51995;SDS011;38010;53.264;6.592;2022-09-09T13:43:48;1.13;;;0.45;;
51995;SDS011;38010;53.264;6.592;2022-09-09T13:49:02;1.02;;;0.50;;
51995;SDS011;38010;53.264;6.592;2022-09-09T13:51:37;0.82;;;0.40;;
51995;SDS011;38010;53.264;6.592;2022-09-09T13:54:08;1.23;;;0.57;;
51995;SDS011;38010;53.264;6.592;2022-09-09T13:56:36;0.75;;;0.30;;
51995;SDS011;38010;53.264;6.592;2022-09-09T13:59:04;0.63;;;0.40;;
51995;SDS011;38010;53.264;6.592;2022-09-09T14:01:34;0.50;;;0.40;;
51995;SDS011;38010;53.264;6.592;2022-09-09T14:04:00;0.50;;;0.32;;
51995;SDS011;38010;53.264;6.592;2022-09-09T14:06:26;1.25;;;0.40;;
51995;SDS011;38010;53.264;6.592;2022-09-09T14:08:52;0.65;;;0.30;;
51995;SDS011;38010;53.264;6.592;2022-09-09T14:11:19;0.93;;;0.40;;
51995;SDS011;38010;53.264;6.592;2022-09-09T14:13:46;1.05;;;0.38;;
51995;SDS011;38010;53.264;6.592;2022-09-09T14:16:15;1.08;;;0.50;;
51995;SDS011;38010;53.264;6.592;2022-09-09T14:18:44;0.30;;;0.20;;
51995;SDS011;38010;53.264;6.592;2022-09-09T14:21:10;0.65;;;0.40;;
51995;SDS011;38010;53.264;6.592;2022-09-09T14:23:37;0.55;;;0.30;;
51995;SDS011;38010;53.264;6.592;2022-09-09T14:26:04;0.45;;;0.30;;
51995;SDS011;38010;53.264;6.592;2022-09-09T14:28:30;1.40;;;0.40;;
51995;SDS011;38010;53.264;6.592;2022-09-09T14:30:58;0.98;;;0.50;;
51995;SDS011;38010;53.264;6.592;2022-09-09T14:33:25;0.30;;;0.30;;
51995;SDS011;38010;53.264;6.592;2022-09-09T14:35:55;1.02;;;0.40;;
51995;SDS011;38010;53.264;6.592;2022-09-09T14:38:22;0.32;;;0.22;;
51995;SDS011;38010;53.264;6.592;2022-09-09T14:40:47;0.30;;;0.30;;
51995;SDS011;38010;53.264;6.592;2022-09-09T14:43:13;0.65;;;0.30;;
51995;SDS011;38010;53.264;6.592;2022-09-09T14:45:39;0.82;;;0.30;;
51995;SDS011;38010;53.264;6.592;2022-09-09T14:48:05;0.40;;;0.30;;
51995;SDS011;38010;53.264;6.592;2022-09-09T14:50:30;0.73;;;0.30;;
51995;SDS011;38010;53.264;6.592;2022-09-09T14:52:56;0.40;;;0.30;;
51995;SDS011;38010;53.264;6.592;2022-09-09T14:55:22;1.30;;;0.20;;
51995;SDS011;38010;53.264;6.592;2022-09-09T14:57:47;0.82;;;0.40;;
51995;SDS011;38010;53.264;6.592;2022-09-09T15:00:14;0.45;;;0.28;;
51995;SDS011;38010;53.264;6.592;2022-09-09T15:02:40;0.65;;;0.20;;
51995;SDS011;38010;53.264;6.592;2022-09-09T15:05:06;0.68;;;0.30;;
51995;SDS011;38010;53.264;6.592;2022-09-09T15:07:33;0.45;;;0.30;;
51995;SDS011;38010;53.264;6.592;2022-09-09T15:09:59;0.38;;;0.20;;
51995;SDS011;38010;53.264;6.592;2022-09-09T15:12:24;0.63;;;0.35;;
51995;SDS011;38010;53.264;6.592;2022-09-09T15:14:50;0.40;;;0.30;;
51995;SDS011;38010;53.264;6.592;2022-09-09T15:17:16;0.47;;;0.30;;
51995;SDS011;38010;53.264;6.592;2022-09-09T15:19:41;0.65;;;0.40;;
51995;SDS011;38010;53.264;6.592;2022-09-09T15:22:08;0.30;;;0.28;;
51995;SDS011;38010;53.264;6.592;2022-09-09T15:24:34;0.38;;;0.20;;
51995;SDS011;38010;53.264;6.592;2022-09-09T15:27:00;0.20;;;0.20;;
51995;SDS011;38010;53.264;6.592;2022-09-09T15:29:27;0.40;;;0.30;;
51995;SDS011;38010;53.264;6.592;2022-09-09T15:31:53;1.05;;;0.25;;
51995;SDS011;38010;53.264;6.592;2022-09-09T15:34:20;0.30;;;0.30;;
51995;SDS011;38010;53.264;6.592;2022-09-09T15:36:46;0.30;;;0.30;;
51995;SDS011;38010;53.264;6.592;2022-09-09T15:39:12;0.43;;;0.20;;
51995;SDS011;38010;53.264;6.592;2022-09-09T15:41:43;0.20;;;0.20;;
51995;SDS011;38010;53.264;6.592;2022-09-09T15:44:10;0.90;;;0.20;;
51995;SDS011;38010;53.264;6.592;2022-09-09T15:46:44;0.40;;;0.30;;
51995;SDS011;38010;53.264;6.592;2022-09-09T15:49:17;1.27;;;0.30;;
51995;SDS011;38010;53.264;6.592;2022-09-09T15:51:51;0.30;;;0.20;;
51995;SDS011;38010;53.264;6.592;2022-09-09T15:54:20;0.45;;;0.20;;
51995;SDS011;38010;53.264;6.592;2022-09-09T15:56:52;0.52;;;0.30;;
51995;SDS011;38010;53.264;6.592;2022-09-09T15:59:21;0.28;;;0.25;;
51995;SDS011;38010;53.264;6.592;2022-09-09T16:01:51;0.47;;;0.30;;
51995;SDS011;38010;53.264;6.592;2022-09-09T16:04:20;0.15;;;0.15;;
51995;SDS011;38010;53.264;6.592;2022-09-09T16:09:16;0.20;;;0.20;;
51995;SDS011;38010;53.264;6.592;2022-09-09T16:11:42;0.88;;;0.22;;
51995;SDS011;38010;53.264;6.592;2022-09-09T16:14:07;0.38;;;0.30;;
51995;SDS011;38010;53.264;6.592;2022-09-09T16:16:34;0.95;;;0.30;;
51995;SDS011;38010;53.264;6.592;2022-09-09T16:19:02;0.52;;;0.20;;
51995;SDS011;38010;53.264;6.592;2022-09-09T16:21:31;0.30;;;0.30;;
51995;SDS011;38010;53.264;6.592;2022-09-09T16:24:00;0.30;;;0.20;;
51995;SDS011;38010;53.264;6.592;2022-09-09T16:26:28;0.25;;;0.17;;
51995;SDS011;38010;53.264;6.592;2022-09-09T16:28:56;0.30;;;0.22;;
51995;SDS011;38010;53.264;6.592;2022-09-09T16:31:24;0.43;;;0.30;;
51995;SDS011;38010;53.264;6.592;2022-09-09T16:33:52;0.20;;;0.20;;
51995;SDS011;38010;53.264;6.592;2022-09-09T16:36:25;0.28;;;0.25;;
51995;SDS011;38010;53.264;6.592;2022-09-09T16:38:54;1.10;;;0.30;;
51995;SDS011;38010;53.264;6.592;2022-09-09T16:41:22;0.50;;;0.30;;
51995;SDS011;38010;53.264;6.592;2022-09-09T16:43:52;0.63;;;0.30;;
51995;SDS011;38010;53.264;6.592;2022-09-09T16:46:19;0.50;;;0.30;;
51995;SDS011;38010;53.264;6.592;2022-09-09T16:48:46;0.20;;;0.20;;
51995;SDS011;38010;53.264;6.592;2022-09-09T16:51:13;0.38;;;0.20;;
51995;SDS011;38010;53.264;6.592;2022-09-09T16:53:44;0.82;;;0.22;;
51995;SDS011;38010;53.264;6.592;2022-09-09T16:56:11;0.40;;;0.20;;
51995;SDS011;38010;53.264;6.592;2022-09-09T16:58:39;0.52;;;0.25;;
51995;SDS011;38010;53.264;6.592;2022-09-09T17:01:05;0.13;;;0.13;;
51995;SDS011;38010;53.264;6.592;2022-09-09T17:03:31;0.60;;;0.30;;
51995;SDS011;38010;53.264;6.592;2022-09-09T17:05:57;0.20;;;0.20;;